createdAt,value
2023-01-05T00:01:47.621Z,1.30
2023-01-05T00:04:50.949Z,1.45
2023-01-05T00:07:54.470Z,1.30
2023-01-05T00:11:36.149Z,1.23
2023-01-05T00:14:56.836Z,1.65
2023-01-05T00:18:17.873Z,1.45
2023-01-05T00:21:46.910Z,1.65
2023-01-05T00:24:50.176Z,1.90
2023-01-05T00:27:57.977Z,1.50
2023-01-05T00:31:00.933Z,1.30
2023-01-05T00:34:04.066Z,1.25
2023-01-05T00:37:07.092Z,1.38
2023-01-05T00:40:13.269Z,1.60
2023-01-05T00:43:17.613Z,1.58
2023-01-05T00:46:20.759Z,1.40
2023-01-05T00:49:24.034Z,1.92
2023-01-05T00:52:27.027Z,1.20
2023-01-05T00:55:29.978Z,1.20
2023-01-05T00:58:34.385Z,1.77
2023-01-05T01:01:37.442Z,1.65
2023-01-05T01:04:40.482Z,2.20
2023-01-05T01:07:43.712Z,1.40
2023-01-05T01:10:47.073Z,1.20
2023-01-05T01:13:51.514Z,1.77
2023-01-05T01:16:54.774Z,1.55
2023-01-05T01:19:57.902Z,1.93
2023-01-05T01:23:03.095Z,1.48
2023-01-05T01:26:07.310Z,1.35
2023-01-05T01:32:14.847Z,1.50
2023-01-05T01:35:18.044Z,1.20
2023-01-05T01:38:21.179Z,1.30
2023-01-05T01:41:24.222Z,1.80
2023-01-05T01:44:58.381Z,1.65
2023-01-05T01:48:02.808Z,1.90
2023-01-05T01:51:12.360Z,1.65
2023-01-05T01:54:18.941Z,1.60
2023-01-05T01:57:23.744Z,1.67
2023-01-05T02:00:28.682Z,1.90
2023-01-05T02:03:32.879Z,1.25
2023-01-05T02:06:36.163Z,1.42
2023-01-05T02:09:39.647Z,1.65
2023-01-05T02:13:05.865Z,1.45
2023-01-05T02:16:24.179Z,1.40
2023-01-05T02:20:29.444Z,1.60
2023-01-05T02:23:55.793Z,1.77
2023-01-05T02:27:38.670Z,1.48
2023-01-05T02:31:04.403Z,1.73
2023-01-05T02:34:21.290Z,1.88
2023-01-05T02:37:33.782Z,1.90
2023-01-05T02:40:43.755Z,1.75
2023-01-05T02:43:48.789Z,1.05
2023-01-05T02:47:03.945Z,1.75
2023-01-05T02:50:15.898Z,1.65
2023-01-05T02:53:24.597Z,1.60
2023-01-05T02:56:35.988Z,1.45
2023-01-05T02:59:45.127Z,1.10
2023-01-05T03:02:54.793Z,1.10
2023-01-05T03:06:04.901Z,1.00
2023-01-05T03:09:08.552Z,0.77
2023-01-05T03:12:40.599Z,0.73
2023-01-05T03:15:47.592Z,1.10
2023-01-05T03:19:13.809Z,1.00
2023-01-05T03:22:40.599Z,0.85
2023-01-05T03:26:02.260Z,1.23
2023-01-05T03:29:22.981Z,1.05
2023-01-05T03:32:46.042Z,0.68
2023-01-05T03:35:58.372Z,0.80
2023-01-05T03:39:05.530Z,0.68
2023-01-05T03:42:10.107Z,1.15
2023-01-05T03:45:16.241Z,0.90
2023-01-05T03:48:20.984Z,0.70
2023-01-05T03:51:26.956Z,0.77
2023-01-05T03:54:30.270Z,0.95
2023-01-05T03:57:33.605Z,0.70
2023-01-05T04:00:36.918Z,0.67
2023-01-05T04:03:40.756Z,0.90
2023-01-05T04:06:45.661Z,0.95
2023-01-05T04:09:48.952Z,0.90
2023-01-05T04:12:52.228Z,1.57
2023-01-05T04:15:56.412Z,1.10
2023-01-05T04:18:59.756Z,0.80
2023-01-05T04:22:04.121Z,1.10
2023-01-05T04:25:08.497Z,0.80
2023-01-05T04:28:11.808Z,0.75
2023-01-05T04:31:15.299Z,1.00
2023-01-05T04:34:18.703Z,0.60
2023-01-05T04:37:23.191Z,0.63
2023-01-05T04:40:26.239Z,0.55
2023-01-05T04:43:29.222Z,0.50
2023-01-05T04:46:32.351Z,0.60
2023-01-05T04:49:35.459Z,0.63
2023-01-05T04:52:40.100Z,0.65
2023-01-05T04:55:45.896Z,1.05
2023-01-05T04:58:48.915Z,0.80
2023-01-05T05:01:52.027Z,0.73
2023-01-05T05:04:55.248Z,0.93
2023-01-05T05:07:59.528Z,1.40
2023-01-05T05:11:02.787Z,1.15
2023-01-05T05:14:05.912Z,1.20
2023-01-05T05:17:08.909Z,0.95
2023-01-05T05:20:12.778Z,1.15
2023-01-05T05:23:17.290Z,0.80
2023-01-05T05:26:20.493Z,1.10
2023-01-05T05:29:23.938Z,1.27
2023-01-05T05:32:27.298Z,0.95
2023-01-05T05:35:30.823Z,1.00
2023-01-05T05:38:35.255Z,1.10
2023-01-05T05:41:38.590Z,0.95
2023-01-05T05:44:43.288Z,0.80
2023-01-05T05:47:46.622Z,1.27
2023-01-05T05:50:49.953Z,1.00
2023-01-05T05:53:54.761Z,0.97
2023-01-05T05:56:58.137Z,1.00
2023-01-05T06:00:01.412Z,0.87
2023-01-05T06:03:04.909Z,1.00
2023-01-05T06:06:09.159Z,1.00
2023-01-05T06:09:13.581Z,1.20
2023-01-05T06:12:16.963Z,1.30
2023-01-05T06:15:20.275Z,3.50
2023-01-05T06:18:23.578Z,0.83
2023-01-05T06:21:26.991Z,0.73
2023-01-05T06:24:31.255Z,0.67
2023-01-05T06:27:34.185Z,1.00
2023-01-05T06:30:37.190Z,0.50
2023-01-05T06:33:40.133Z,0.60
2023-01-05T06:36:43.093Z,0.98
2023-01-05T06:39:47.530Z,1.13
2023-01-05T06:42:50.675Z,0.70
2023-01-05T06:45:53.750Z,0.35
2023-01-05T06:48:57.007Z,0.50
2023-01-05T06:52:00.297Z,0.70
2023-01-05T06:55:05.029Z,0.20
2023-01-05T06:58:08.030Z,0.75
2023-01-05T07:01:11.082Z,0.55
2023-01-05T07:04:14.428Z,0.50
2023-01-05T07:07:17.888Z,0.63
2023-01-05T07:10:24.129Z,0.75
2023-01-05T07:13:27.132Z,0.55
2023-01-05T07:16:30.205Z,0.88
2023-01-05T07:19:33.297Z,0.60
2023-01-05T07:22:36.484Z,0.30
2023-01-05T07:25:40.766Z,0.60
2023-01-05T07:28:43.899Z,0.75
2023-01-05T07:31:47.573Z,0.30
2023-01-05T07:34:55.273Z,0.38
2023-01-05T07:37:58.634Z,0.40
2023-01-05T07:41:03.472Z,0.43
2023-01-05T07:44:06.593Z,0.73
2023-01-05T07:47:09.553Z,0.50
2023-01-05T07:50:12.759Z,0.88
2023-01-05T07:53:15.753Z,0.80
2023-01-05T07:56:20.087Z,0.68
2023-01-05T07:59:23.092Z,0.73
2023-01-05T08:02:32.261Z,0.70
2023-01-05T08:05:39.054Z,0.70
2023-01-05T08:08:42.700Z,1.30
2023-01-05T08:11:46.982Z,1.10
2023-01-05T08:14:50.145Z,0.50
2023-01-05T08:17:53.084Z,0.90
2023-01-05T08:20:58.198Z,0.70
2023-01-05T08:24:01.129Z,0.93
2023-01-05T08:27:05.421Z,0.60
2023-01-05T08:30:11.211Z,0.98
2023-01-05T08:33:14.683Z,0.70
2023-01-05T08:36:21.099Z,0.57
2023-01-05T08:39:24.595Z,0.50
2023-01-05T08:42:28.860Z,0.63
2023-01-05T08:45:32.832Z,0.55
2023-01-05T08:51:39.655Z,0.73
2023-01-05T08:54:43.786Z,0.70
2023-01-05T09:00:51.446Z,0.43
2023-01-05T09:03:54.816Z,0.25
2023-01-05T09:06:59.010Z,0.90
2023-01-05T09:13:06.348Z,0.70
2023-01-05T09:16:13.216Z,0.80
2023-01-05T09:19:16.230Z,0.85
2023-01-05T09:22:19.237Z,0.55
2023-01-05T09:25:22.181Z,0.60
2023-01-05T09:28:26.799Z,0.50
2023-01-05T09:31:30.548Z,0.52
2023-01-05T09:34:33.915Z,0.85
2023-01-05T09:37:37.238Z,0.63
2023-01-05T09:40:44.255Z,0.70
2023-01-05T09:43:51.239Z,1.08
2023-01-05T09:46:57.252Z,1.35
2023-01-05T09:50:02.181Z,0.68
2023-01-05T09:53:08.436Z,0.50
2023-01-05T09:57:07.350Z,0.50
2023-01-05T09:59:58.614Z,0.50
2023-01-05T10:03:13.011Z,0.60
2023-01-05T10:06:28.629Z,0.45
2023-01-05T10:09:39.018Z,0.45
2023-01-05T10:13:05.415Z,0.30
2023-01-05T10:16:17.484Z,0.47
2023-01-05T10:19:22.610Z,0.30
2023-01-05T10:22:48.844Z,0.57
2023-01-05T10:26:03.297Z,0.57
2023-01-05T10:32:26.275Z,0.75
2023-01-05T10:36:02.675Z,0.50
2023-01-05T10:39:22.569Z,0.60
2023-01-05T10:42:52.277Z,0.60
2023-01-05T10:46:29.369Z,0.47
2023-01-05T10:49:26.661Z,0.40
2023-01-05T10:52:30.688Z,0.40
2023-01-05T10:55:33.820Z,0.30
2023-01-05T10:58:39.671Z,0.52
2023-01-05T11:01:50.611Z,0.60
2023-01-05T11:04:56.093Z,0.50
2023-01-05T11:08:03.083Z,0.40
2023-01-05T11:11:09.000Z,0.38
2023-01-05T11:14:17.966Z,0.15
2023-01-05T11:17:25.550Z,0.30
2023-01-05T11:20:30.291Z,0.55
2023-01-05T11:23:37.640Z,0.20
2023-01-05T11:26:50.823Z,0.20
2023-01-05T11:30:24.676Z,0.25
2023-01-05T11:33:31.308Z,0.20
2023-01-05T11:36:36.186Z,0.30
2023-01-05T11:39:48.241Z,0.40
2023-01-05T11:42:51.455Z,0.50
2023-01-05T11:45:57.950Z,0.60
2023-01-05T11:49:02.285Z,0.52
2023-01-05T11:52:28.600Z,0.77
2023-01-05T11:55:36.104Z,1.20
2023-01-05T11:58:45.275Z,0.52
2023-01-05T12:02:07.375Z,0.75
2023-01-05T12:05:28.674Z,0.65
2023-01-05T12:08:44.936Z,0.77
2023-01-05T12:12:05.474Z,0.65
2023-01-05T12:15:41.234Z,0.43
2023-01-05T12:19:26.606Z,0.40
2023-01-05T12:23:03.889Z,0.40
2023-01-05T12:26:24.271Z,0.38
2023-01-05T12:34:09.919Z,0.30
2023-01-05T12:37:32.464Z,0.28
2023-01-05T12:40:57.448Z,0.20
2023-01-05T12:44:37.187Z,0.43
2023-01-05T12:47:57.487Z,0.20
2023-01-05T12:51:13.625Z,0.35
2023-01-05T12:54:32.367Z,0.30
2023-01-05T12:57:42.567Z,0.15
2023-01-05T13:00:50.544Z,0.20
2023-01-05T13:04:03.363Z,0.30
2023-01-05T13:07:12.200Z,0.30
2023-01-05T13:10:23.876Z,0.40
2023-01-05T13:13:35.413Z,0.30
2023-01-05T13:16:43.732Z,0.60
2023-01-05T13:19:51.178Z,0.30
2023-01-05T13:23:01.605Z,0.35
2023-01-05T13:26:09.028Z,0.70
2023-01-05T13:29:24.137Z,0.70
2023-01-05T13:33:07.338Z,1.15
2023-01-05T13:36:31.378Z,0.63
2023-01-05T13:39:56.795Z,0.85
2023-01-05T13:43:35.246Z,0.60
2023-01-05T13:47:15.337Z,0.88
2023-01-05T13:50:55.915Z,0.70
2023-01-05T13:54:07.396Z,0.90
2023-01-05T13:57:19.149Z,1.00
2023-01-05T14:00:28.213Z,0.70
2023-01-05T14:03:38.317Z,0.90
2023-01-05T14:06:48.929Z,0.77
2023-01-05T14:09:56.179Z,0.60
2023-01-05T14:13:00.313Z,0.80
2023-01-05T14:19:54.100Z,0.47
2023-01-05T14:22:59.028Z,0.70
2023-01-05T14:26:03.139Z,0.60
2023-01-05T14:32:09.290Z,0.43
2023-01-05T14:35:26.030Z,0.60
2023-01-05T14:38:31.063Z,0.90
2023-01-05T14:41:35.248Z,0.80
2023-01-05T14:47:50.946Z,0.40
2023-01-05T14:51:18.000Z,0.30
2023-01-05T14:54:38.420Z,0.40
2023-01-05T14:57:52.202Z,0.32
2023-01-05T15:00:59.464Z,0.40
2023-01-05T15:04:08.941Z,0.30
2023-01-05T15:07:29.906Z,0.32
2023-01-05T15:10:54.250Z,0.50
2023-01-05T15:14:35.596Z,0.20
2023-01-05T15:18:01.537Z,0.40
2023-01-05T15:22:12.877Z,0.47
2023-01-05T15:26:08.200Z,0.45
2023-01-05T15:29:40.506Z,0.52
2023-01-05T15:32:46.242Z,0.90
2023-01-05T15:35:57.804Z,0.90
2023-01-05T15:39:00.981Z,0.70
2023-01-05T15:42:10.243Z,0.50
2023-01-05T15:45:22.580Z,0.70
2023-01-05T15:48:34.092Z,0.57
2023-01-05T15:51:37.954Z,0.93
2023-01-05T15:54:41.207Z,1.00
2023-01-05T15:57:54.583Z,1.10
2023-01-05T16:01:04.763Z,0.70
2023-01-05T16:04:14.397Z,1.05
2023-01-05T16:07:17.492Z,1.10
2023-01-05T16:10:24.784Z,0.98
2023-01-05T16:13:35.625Z,9.77
2023-01-05T16:16:52.707Z,2.45
2023-01-05T16:20:01.337Z,2.30
2023-01-05T16:23:14.412Z,1.90
2023-01-05T16:26:19.944Z,2.10
2023-01-05T16:29:37.885Z,1.83
2023-01-05T16:32:41.937Z,1.17
2023-01-05T16:35:47.341Z,1.52
2023-01-05T16:38:50.549Z,2.45
2023-01-05T16:42:23.648Z,2.90
2023-01-05T16:45:35.895Z,2.92
2023-01-05T16:48:50.660Z,2.28
2023-01-05T16:51:55.767Z,1.60
2023-01-05T16:55:28.298Z,2.28
2023-01-05T16:58:38.883Z,2.05
2023-01-05T17:01:45.524Z,2.10
2023-01-05T17:04:49.031Z,2.00
2023-01-05T17:08:03.628Z,2.33
2023-01-05T17:11:12.694Z,2.55
2023-01-05T17:14:17.162Z,1.80
2023-01-05T17:17:21.492Z,1.10
2023-01-05T17:20:41.052Z,1.20
2023-01-05T17:23:47.685Z,1.48
2023-01-05T17:26:50.942Z,1.63
2023-01-05T17:29:53.905Z,1.43
2023-01-05T17:32:58.230Z,1.40
2023-01-05T17:36:03.542Z,1.40
2023-01-05T17:39:06.737Z,1.60
2023-01-05T17:42:23.941Z,1.80
2023-01-05T17:45:28.475Z,1.17
2023-01-05T17:48:33.081Z,1.55
2023-01-05T17:51:38.392Z,1.90
2023-01-05T17:54:48.895Z,1.75
2023-01-05T17:57:52.245Z,1.65
2023-01-05T18:00:57.411Z,1.43
2023-01-05T18:04:04.813Z,1.92
2023-01-05T18:07:27.140Z,2.28
2023-01-05T18:10:33.421Z,2.70
2023-01-05T18:13:38.519Z,3.00
2023-01-05T18:16:47.232Z,3.22
2023-01-05T18:19:54.805Z,3.38
2023-01-05T18:22:58.483Z,4.28
2023-01-05T18:26:05.822Z,3.17
2023-01-05T18:29:12.274Z,3.35
2023-01-05T18:32:35.119Z,3.05
2023-01-05T18:38:59.587Z,2.75
2023-01-05T18:42:05.656Z,2.97
2023-01-05T18:45:19.519Z,2.47
2023-01-05T18:48:33.926Z,2.33
2023-01-05T18:51:39.820Z,2.25
2023-01-05T18:54:45.227Z,1.85
2023-01-05T18:57:50.256Z,2.55
2023-01-05T19:00:53.417Z,2.43
2023-01-05T19:04:05.078Z,2.38
2023-01-05T19:07:11.578Z,2.28
2023-01-05T19:10:19.532Z,1.83
2023-01-05T19:13:24.428Z,2.03
2023-01-05T19:16:31.814Z,1.42
2023-01-05T19:19:36.605Z,2.33
2023-01-05T19:22:45.929Z,2.17
2023-01-05T19:25:49.628Z,2.20
2023-01-05T19:28:54.560Z,1.48
2023-01-05T19:31:58.166Z,1.17
2023-01-05T19:35:03.696Z,1.50
2023-01-05T19:38:11.498Z,1.50
2023-01-05T19:41:19.830Z,1.60
2023-01-05T19:44:24.075Z,1.15
2023-01-05T19:47:27.849Z,1.10
2023-01-05T19:50:31.311Z,1.40
2023-01-05T19:53:39.033Z,1.33
2023-01-05T19:56:43.956Z,1.27
2023-01-05T19:59:47.488Z,1.33
2023-01-05T20:02:52.060Z,1.70
2023-01-05T20:06:06.358Z,1.20
2023-01-05T20:09:16.084Z,1.40
2023-01-05T20:12:19.825Z,1.25
2023-01-05T20:15:24.776Z,1.42
2023-01-05T20:18:39.688Z,1.17
2023-01-05T20:22:01.428Z,1.13
2023-01-05T20:25:15.040Z,1.10
2023-01-05T20:28:31.796Z,0.82
2023-01-05T20:31:41.001Z,0.85
2023-01-05T20:34:48.938Z,0.68
2023-01-05T20:37:56.750Z,1.00
2023-01-05T20:41:06.231Z,0.80
2023-01-05T20:44:28.754Z,0.80
2023-01-05T20:47:47.862Z,0.80
2023-01-05T20:51:05.549Z,0.80
2023-01-05T20:57:31.368Z,0.75
2023-01-05T21:01:10.168Z,0.82
2023-01-05T21:04:17.015Z,0.90
2023-01-05T21:07:35.143Z,0.80
2023-01-05T21:10:56.057Z,0.80
2023-01-05T21:14:14.866Z,0.85
2023-01-05T21:17:24.211Z,0.45
2023-01-05T21:20:28.007Z,0.73
2023-01-05T21:23:32.740Z,0.80
2023-01-05T21:26:40.952Z,0.80
2023-01-05T21:29:48.042Z,0.82
2023-01-05T21:32:55.616Z,1.10
2023-01-05T21:36:11.570Z,0.70
2023-01-05T21:39:24.825Z,0.80
2023-01-05T21:42:42.896Z,0.90
2023-01-05T21:45:48.812Z,1.25
2023-01-05T21:48:52.730Z,0.90
2023-01-05T21:52:18.269Z,0.73
2023-01-05T21:55:44.417Z,1.15
2023-01-05T21:58:54.222Z,1.02
2023-01-05T22:02:02.666Z,0.80
2023-01-05T22:05:07.994Z,0.98
2023-01-05T22:08:11.376Z,1.33
2023-01-05T22:11:21.149Z,1.30
2023-01-05T22:14:24.441Z,0.80
2023-01-05T22:17:38.898Z,0.90
2023-01-05T22:23:53.065Z,1.20
2023-01-05T22:26:58.056Z,1.02
2023-01-05T22:30:06.898Z,1.20
2023-01-05T22:33:13.707Z,1.13
2023-01-05T22:36:30.057Z,1.10
2023-01-05T22:39:37.822Z,0.95
2023-01-05T22:42:49.811Z,0.90
2023-01-05T22:45:56.713Z,1.27
2023-01-05T22:49:08.456Z,1.00
2023-01-05T22:52:14.573Z,1.00
2023-01-05T22:55:36.221Z,0.95
2023-01-05T22:58:49.697Z,0.90
2023-01-05T23:01:53.999Z,1.20
2023-01-05T23:04:59.191Z,1.15
2023-01-05T23:08:04.769Z,1.33
2023-01-05T23:11:12.479Z,1.10
2023-01-05T23:14:24.273Z,1.17
2023-01-05T23:17:38.997Z,1.23
2023-01-05T23:20:43.944Z,1.00
2023-01-05T23:23:51.032Z,1.10
2023-01-05T23:26:54.933Z,1.40
2023-01-05T23:29:58.644Z,1.00
2023-01-05T23:33:02.191Z,1.15
2023-01-05T23:36:19.451Z,1.70
2023-01-05T23:39:23.367Z,1.90
2023-01-05T23:42:47.756Z,2.38
2023-01-05T23:49:05.751Z,1.75
2023-01-05T23:52:20.596Z,1.88
2023-01-05T23:55:26.609Z,1.95
2023-01-05T23:58:48.095Z,1.80
